Tropical Cyclones
[Index]
Main Index Home Page Stock Weather Photos Extreme Storms Discussion Storm News and Storm Chasing Reports Tropical Cyclones / Hurricanes / Typhoons Weather Data and Links Wild Fires / Bushfires Weather Observation Techniques Weather Picture Catalogue Tornado Pictures and Reports Stock Video Footage and DVDs for sale
Season 2000-2001 Tropical Cyclone SOSE Track Map
Season 2000-2001 Summaries: [BoM-AU] [JTWC-AU] [JTWC-SIO] [JTWC-SPAC] [JTWC-SH]
<<- Previous TC | JTWC 2000-2001 Season | Next TC ->>

click for intensity scale information  Lat/long Grid: Show Hide

 Date Labels: Show Hide

Joint Typhoon Warning Centre Cyclone Data

Name: SOSE

03 Apr 2001 18:00 UTC to 11 Apr 2001 06:00 UTC

    date/time    lat    long     hPa   cat  kts
2001-04-03 18   11.8   171.5                  25          
2001-04-04 00   11.9   170.5                  25          
2001-04-04 06   12.2   169.5                  25          
2001-04-04 12   12.5   168.8                  25          
2001-04-04 18   12.9   168.2                  25          
2001-04-05 00   13.2   167.7                  25          
2001-04-05 06   13.4   167.2                  25          
2001-04-05 12   13.4   166.7                  25          
2001-04-05 18   13.4   166.1                  35          
2001-04-06 00   13.5   165.6                  30          
2001-04-06 06   13.8   165.3            1     40          
2001-04-06 12   14.1   165.3            1     45          
2001-04-06 18   14.5   165.6            1     50          
2001-04-07 00   15.0   166.0            2     55          
2001-04-07 06   15.8   166.7            2     60          
2001-04-07 12   16.8   167.2            2     65          
2001-04-07 18   17.8   167.4            2     65          
2001-04-08 00   18.7   167.6            2     65          
2001-04-08 06   19.5   168.3            2     65          
2001-04-08 12   20.2   169.0            2     70          
2001-04-08 18   20.6   169.5            2     60          
2001-04-09 00   21.2   170.1            2     60          
2001-04-09 06   22.0   170.5            2     55          
2001-04-09 12   22.6   170.3            1     50          
2001-04-09 18   23.2   170.1            1     50          
2001-04-10 00   23.8   170.0            1     45          
2001-04-10 06   24.5   170.0            1     40          
2001-04-10 12   25.1   170.1                  35          
2001-04-10 18   25.5   170.1                  35          
2001-04-11 00   25.9   170.0                  30          
2001-04-11 06   26.4   169.5                  30          
Winds are 1-min average.

Tropical cyclone tracks developed by Michael Bath using data from the Joint Typhoon Warning Centre Best Tracks and Google Maps.


[Australian Severe Weather index] [Copyright Notice] [Email Contacts] [Search This Site] [Privacy Policy]
Document: tropical_cyclone_sose.htm Updated: 28 June 2017